sensor_id;sensor_type;location;lat;lon;timestamp;P1;durP1;ratioP1;P2;durP2;ratioP2
64199;SDS011;50516;52.272;5.136;2022-09-11T00:01:10;16.85;;;14.93;;
64199;SDS011;50516;52.272;5.136;2022-09-11T00:03:39;20.58;;;14.98;;
64199;SDS011;50516;52.272;5.136;2022-09-11T00:06:07;17.92;;;15.07;;
64199;SDS011;50516;52.272;5.136;2022-09-11T00:08:35;18.63;;;15.57;;
64199;SDS011;50516;52.272;5.136;2022-09-11T00:13:30;18.02;;;15.80;;
64199;SDS011;50516;52.272;5.136;2022-09-11T00:15:56;20.13;;;16.42;;
64199;SDS011;50516;52.272;5.136;2022-09-11T00:18:21;22.02;;;17.50;;
64199;SDS011;50516;52.272;5.136;2022-09-11T00:20:51;23.20;;;17.40;;
64199;SDS011;50516;52.272;5.136;2022-09-11T00:23:19;21.77;;;17.65;;
64199;SDS011;50516;52.272;5.136;2022-09-11T00:25:47;19.30;;;16.23;;
64199;SDS011;50516;52.272;5.136;2022-09-11T00:28:14;20.30;;;17.08;;
64199;SDS011;50516;52.272;5.136;2022-09-11T00:30:42;22.15;;;17.15;;
64199;SDS011;50516;52.272;5.136;2022-09-11T00:33:09;19.85;;;16.73;;
64199;SDS011;50516;52.272;5.136;2022-09-11T00:35:36;19.90;;;17.27;;
64199;SDS011;50516;52.272;5.136;2022-09-11T00:38:02;20.45;;;17.92;;
64199;SDS011;50516;52.272;5.136;2022-09-11T00:40:27;25.55;;;16.02;;
64199;SDS011;50516;52.272;5.136;2022-09-11T00:42:53;22.52;;;19.02;;
64199;SDS011;50516;52.272;5.136;2022-09-11T00:45:26;21.58;;;18.20;;
64199;SDS011;50516;52.272;5.136;2022-09-11T00:47:53;19.42;;;16.83;;
64199;SDS011;50516;52.272;5.136;2022-09-11T00:50:23;18.30;;;15.73;;
64199;SDS011;50516;52.272;5.136;2022-09-11T00:52:53;18.70;;;15.80;;
64199;SDS011;50516;52.272;5.136;2022-09-11T00:55:22;23.77;;;18.10;;
64199;SDS011;50516;52.272;5.136;2022-09-11T00:57:53;21.20;;;17.05;;
64199;SDS011;50516;52.272;5.136;2022-09-11T01:00:27;21.98;;;17.38;;
64199;SDS011;50516;52.272;5.136;2022-09-11T01:02:53;20.48;;;15.75;;
64199;SDS011;50516;52.272;5.136;2022-09-11T01:05:20;19.08;;;16.08;;
64199;SDS011;50516;52.272;5.136;2022-09-11T01:07:47;18.33;;;16.08;;
64199;SDS011;50516;52.272;5.136;2022-09-11T01:10:18;19.88;;;17.17;;
64199;SDS011;50516;52.272;5.136;2022-09-11T01:12:52;22.73;;;17.17;;
64199;SDS011;50516;52.272;5.136;2022-09-11T01:15:29;18.95;;;16.15;;
64199;SDS011;50516;52.272;5.136;2022-09-11T01:18:08;20.27;;;16.60;;
64199;SDS011;50516;52.272;5.136;2022-09-11T01:23:59;18.92;;;16.90;;
64199;SDS011;50516;52.272;5.136;2022-09-11T01:29:49;22.85;;;17.77;;
64199;SDS011;50516;52.272;5.136;2022-09-11T01:32:23;22.23;;;17.13;;
64199;SDS011;50516;52.272;5.136;2022-09-11T01:40:50;19.75;;;15.05;;
64199;SDS011;50516;52.272;5.136;2022-09-11T01:43:23;17.60;;;14.63;;
64199;SDS011;50516;52.272;5.136;2022-09-11T01:45:51;17.90;;;14.88;;
64199;SDS011;50516;52.272;5.136;2022-09-11T01:48:18;17.90;;;14.90;;
64199;SDS011;50516;52.272;5.136;2022-09-11T01:50:47;18.15;;;15.00;;
64199;SDS011;50516;52.272;5.136;2022-09-11T01:53:15;17.65;;;15.13;;
64199;SDS011;50516;52.272;5.136;2022-09-11T01:55:51;19.70;;;15.85;;
64199;SDS011;50516;52.272;5.136;2022-09-11T01:58:22;19.05;;;15.40;;
64199;SDS011;50516;52.272;5.136;2022-09-11T02:00:53;18.30;;;14.60;;
64199;SDS011;50516;52.272;5.136;2022-09-11T02:03:28;16.00;;;13.63;;
64199;SDS011;50516;52.272;5.136;2022-09-11T02:06:00;16.55;;;14.25;;
64199;SDS011;50516;52.272;5.136;2022-09-11T02:08:46;16.95;;;14.13;;
64199;SDS011;50516;52.272;5.136;2022-09-11T02:11:16;16.15;;;13.90;;
64199;SDS011;50516;52.272;5.136;2022-09-11T02:14:03;16.63;;;14.05;;
64199;SDS011;50516;52.272;5.136;2022-09-11T02:19:11;21.05;;;16.38;;
64199;SDS011;50516;52.272;5.136;2022-09-11T02:21:40;19.27;;;16.58;;
64199;SDS011;50516;52.272;5.136;2022-09-11T02:24:06;19.80;;;15.15;;
64199;SDS011;50516;52.272;5.136;2022-09-11T02:26:35;21.00;;;14.40;;
64199;SDS011;50516;52.272;5.136;2022-09-11T02:29:03;18.70;;;16.58;;
64199;SDS011;50516;52.272;5.136;2022-09-11T02:31:29;18.95;;;15.68;;
64199;SDS011;50516;52.272;5.136;2022-09-11T02:33:56;19.25;;;15.20;;
64199;SDS011;50516;52.272;5.136;2022-09-11T02:44:36;16.60;;;14.52;;
64199;SDS011;50516;52.272;5.136;2022-09-11T02:52:52;13.77;;;12.38;;
64199;SDS011;50516;52.272;5.136;2022-09-11T02:58:31;17.13;;;13.80;;
64199;SDS011;50516;52.272;5.136;2022-09-11T03:01:06;14.52;;;12.57;;
64199;SDS011;50516;52.272;5.136;2022-09-11T03:03:39;16.17;;;13.05;;
64199;SDS011;50516;52.272;5.136;2022-09-11T03:06:07;16.88;;;12.27;;
64199;SDS011;50516;52.272;5.136;2022-09-11T03:08:36;14.38;;;11.20;;
64199;SDS011;50516;52.272;5.136;2022-09-11T03:11:01;15.40;;;11.60;;
64199;SDS011;50516;52.272;5.136;2022-09-11T03:13:26;14.18;;;11.75;;
64199;SDS011;50516;52.272;5.136;2022-09-11T03:15:52;15.00;;;11.18;;
64199;SDS011;50516;52.272;5.136;2022-09-11T03:18:18;12.90;;;10.65;;
64199;SDS011;50516;52.272;5.136;2022-09-11T03:20:44;13.90;;;10.93;;
64199;SDS011;50516;52.272;5.136;2022-09-11T03:23:13;13.75;;;10.70;;
64199;SDS011;50516;52.272;5.136;2022-09-11T03:25:39;11.88;;;10.07;;
64199;SDS011;50516;52.272;5.136;2022-09-11T03:28:05;13.90;;;11.32;;
64199;SDS011;50516;52.272;5.136;2022-09-11T03:30:31;12.60;;;11.02;;
64199;SDS011;50516;52.272;5.136;2022-09-11T03:32:57;14.88;;;12.10;;
64199;SDS011;50516;52.272;5.136;2022-09-11T03:35:24;11.75;;;10.30;;
64199;SDS011;50516;52.272;5.136;2022-09-11T03:37:51;12.95;;;10.77;;
64199;SDS011;50516;52.272;5.136;2022-09-11T03:40:17;13.77;;;11.55;;
64199;SDS011;50516;52.272;5.136;2022-09-11T03:42:44;15.15;;;11.20;;
64199;SDS011;50516;52.272;5.136;2022-09-11T03:45:09;15.25;;;11.93;;
64199;SDS011;50516;52.272;5.136;2022-09-11T03:47:36;17.02;;;12.95;;
64199;SDS011;50516;52.272;5.136;2022-09-11T03:50:01;14.13;;;11.48;;
64199;SDS011;50516;52.272;5.136;2022-09-11T03:52:27;14.18;;;12.43;;
64199;SDS011;50516;52.272;5.136;2022-09-11T03:54:54;23.67;;;12.20;;
64199;SDS011;50516;52.272;5.136;2022-09-11T03:57:19;18.92;;;13.35;;
64199;SDS011;50516;52.272;5.136;2022-09-11T03:59:45;14.00;;;11.57;;
64199;SDS011;50516;52.272;5.136;2022-09-11T04:02:10;17.05;;;11.82;;
64199;SDS011;50516;52.272;5.136;2022-09-11T04:04:35;17.98;;;14.57;;
64199;SDS011;50516;52.272;5.136;2022-09-11T04:07:01;12.27;;;10.68;;
64199;SDS011;50516;52.272;5.136;2022-09-11T04:09:26;13.73;;;12.20;;
64199;SDS011;50516;52.272;5.136;2022-09-11T04:11:51;14.02;;;11.20;;
64199;SDS011;50516;52.272;5.136;2022-09-11T04:14:16;14.45;;;12.30;;
64199;SDS011;50516;52.272;5.136;2022-09-11T04:16:43;18.13;;;13.60;;
64199;SDS011;50516;52.272;5.136;2022-09-11T04:19:08;15.35;;;12.13;;
64199;SDS011;50516;52.272;5.136;2022-09-11T04:21:35;15.38;;;11.60;;
64199;SDS011;50516;52.272;5.136;2022-09-11T04:24:00;17.30;;;13.75;;
64199;SDS011;50516;52.272;5.136;2022-09-11T04:26:27;16.75;;;13.98;;
64199;SDS011;50516;52.272;5.136;2022-09-11T04:28:56;16.77;;;13.07;;
64199;SDS011;50516;52.272;5.136;2022-09-11T04:31:22;19.45;;;13.88;;
64199;SDS011;50516;52.272;5.136;2022-09-11T04:33:47;19.30;;;15.60;;
64199;SDS011;50516;52.272;5.136;2022-09-11T04:36:14;17.80;;;13.82;;
64199;SDS011;50516;52.272;5.136;2022-09-11T04:38:43;16.92;;;13.30;;
64199;SDS011;50516;52.272;5.136;2022-09-11T04:41:10;16.42;;;13.48;;
64199;SDS011;50516;52.272;5.136;2022-09-11T04:43:36;18.45;;;14.02;;
64199;SDS011;50516;52.272;5.136;2022-09-11T04:46:04;16.40;;;12.55;;
64199;SDS011;50516;52.272;5.136;2022-09-11T04:48:31;17.30;;;13.25;;
64199;SDS011;50516;52.272;5.136;2022-09-11T04:51:01;16.77;;;13.52;;
64199;SDS011;50516;52.272;5.136;2022-09-11T04:53:32;16.88;;;13.00;;
64199;SDS011;50516;52.272;5.136;2022-09-11T04:56:01;17.70;;;12.98;;
64199;SDS011;50516;52.272;5.136;2022-09-11T04:58:27;17.42;;;13.32;;
64199;SDS011;50516;52.272;5.136;2022-09-11T05:00:53;17.55;;;12.88;;
64199;SDS011;50516;52.272;5.136;2022-09-11T05:03:18;15.70;;;12.52;;
64199;SDS011;50516;52.272;5.136;2022-09-11T05:05:44;16.40;;;13.82;;
64199;SDS011;50516;52.272;5.136;2022-09-11T05:08:10;16.20;;;12.68;;
64199;SDS011;50516;52.272;5.136;2022-09-11T05:10:38;20.42;;;14.80;;
64199;SDS011;50516;52.272;5.136;2022-09-11T05:13:03;16.48;;;13.45;;
64199;SDS011;50516;52.272;5.136;2022-09-11T05:15:29;25.65;;;17.38;;
64199;SDS011;50516;52.272;5.136;2022-09-11T05:17:56;19.98;;;14.90;;
64199;SDS011;50516;52.272;5.136;2022-09-11T05:20:22;20.23;;;15.63;;
64199;SDS011;50516;52.272;5.136;2022-09-11T05:22:47;24.17;;;15.13;;
64199;SDS011;50516;52.272;5.136;2022-09-11T05:25:12;21.15;;;15.18;;
64199;SDS011;50516;52.272;5.136;2022-09-11T05:27:38;19.45;;;15.23;;
64199;SDS011;50516;52.272;5.136;2022-09-11T05:30:03;22.15;;;16.55;;
64199;SDS011;50516;52.272;5.136;2022-09-11T05:32:30;22.90;;;17.45;;
64199;SDS011;50516;52.272;5.136;2022-09-11T05:34:55;27.08;;;16.80;;
64199;SDS011;50516;52.272;5.136;2022-09-11T05:37:21;21.02;;;16.20;;
64199;SDS011;50516;52.272;5.136;2022-09-11T05:39:46;19.23;;;15.85;;
64199;SDS011;50516;52.272;5.136;2022-09-11T05:42:11;22.55;;;17.42;;
64199;SDS011;50516;52.272;5.136;2022-09-11T05:44:37;22.05;;;16.48;;
64199;SDS011;50516;52.272;5.136;2022-09-11T05:47:03;24.80;;;18.42;;
64199;SDS011;50516;52.272;5.136;2022-09-11T05:49:28;21.85;;;15.52;;
64199;SDS011;50516;52.272;5.136;2022-09-11T05:51:56;33.47;;;16.85;;
64199;SDS011;50516;52.272;5.136;2022-09-11T05:54:21;23.23;;;17.17;;
64199;SDS011;50516;52.272;5.136;2022-09-11T05:56:46;22.52;;;17.15;;
64199;SDS011;50516;52.272;5.136;2022-09-11T05:59:12;21.13;;;16.17;;
64199;SDS011;50516;52.272;5.136;2022-09-11T06:01:38;21.08;;;15.48;;
64199;SDS011;50516;52.272;5.136;2022-09-11T06:04:07;21.90;;;17.13;;
64199;SDS011;50516;52.272;5.136;2022-09-11T06:06:34;20.20;;;16.75;;
64199;SDS011;50516;52.272;5.136;2022-09-11T06:08:59;22.00;;;17.20;;
64199;SDS011;50516;52.272;5.136;2022-09-11T06:11:25;22.33;;;17.70;;
64199;SDS011;50516;52.272;5.136;2022-09-11T06:13:50;24.20;;;17.08;;
64199;SDS011;50516;52.272;5.136;2022-09-11T06:16:17;19.90;;;16.70;;
64199;SDS011;50516;52.272;5.136;2022-09-11T06:18:47;23.33;;;17.75;;
64199;SDS011;50516;52.272;5.136;2022-09-11T06:21:15;18.83;;;16.50;;
64199;SDS011;50516;52.272;5.136;2022-09-11T06:23:44;20.02;;;16.63;;
64199;SDS011;50516;52.272;5.136;2022-09-11T06:26:11;22.55;;;17.98;;
64199;SDS011;50516;52.272;5.136;2022-09-11T06:28:38;23.52;;;17.08;;
64199;SDS011;50516;52.272;5.136;2022-09-11T06:31:04;22.90;;;18.58;;
64199;SDS011;50516;52.272;5.136;2022-09-11T06:33:35;22.45;;;18.30;;
64199;SDS011;50516;52.272;5.136;2022-09-11T06:36:03;23.90;;;17.80;;
64199;SDS011;50516;52.272;5.136;2022-09-11T06:38:30;23.15;;;17.98;;
64199;SDS011;50516;52.272;5.136;2022-09-11T06:40:56;24.50;;;17.60;;
64199;SDS011;50516;52.272;5.136;2022-09-11T06:43:22;22.17;;;17.63;;
64199;SDS011;50516;52.272;5.136;2022-09-11T06:45:47;24.23;;;20.10;;
64199;SDS011;50516;52.272;5.136;2022-09-11T06:48:14;23.15;;;19.80;;
64199;SDS011;50516;52.272;5.136;2022-09-11T06:50:40;21.17;;;17.63;;
64199;SDS011;50516;52.272;5.136;2022-09-11T06:53:06;23.70;;;18.63;;
64199;SDS011;50516;52.272;5.136;2022-09-11T06:55:32;20.25;;;17.70;;
64199;SDS011;50516;52.272;5.136;2022-09-11T06:57:58;22.55;;;17.92;;
64199;SDS011;50516;52.272;5.136;2022-09-11T07:00:23;19.13;;;16.77;;
64199;SDS011;50516;52.272;5.136;2022-09-11T07:02:51;20.95;;;18.30;;
64199;SDS011;50516;52.272;5.136;2022-09-11T07:05:17;19.13;;;16.15;;
64199;SDS011;50516;52.272;5.136;2022-09-11T07:07:43;20.77;;;18.52;;
64199;SDS011;50516;52.272;5.136;2022-09-11T07:10:10;20.27;;;17.10;;
64199;SDS011;50516;52.272;5.136;2022-09-11T07:12:35;22.65;;;19.20;;
64199;SDS011;50516;52.272;5.136;2022-09-11T07:15:03;20.95;;;18.63;;
64199;SDS011;50516;52.272;5.136;2022-09-11T07:17:30;28.83;;;19.17;;
64199;SDS011;50516;52.272;5.136;2022-09-11T07:19:55;24.92;;;19.40;;
64199;SDS011;50516;52.272;5.136;2022-09-11T07:22:21;20.17;;;18.00;;
64199;SDS011;50516;52.272;5.136;2022-09-11T07:24:46;22.63;;;17.27;;
64199;SDS011;50516;52.272;5.136;2022-09-11T07:27:11;19.00;;;16.95;;
64199;SDS011;50516;52.272;5.136;2022-09-11T07:29:38;20.67;;;17.70;;
64199;SDS011;50516;52.272;5.136;2022-09-11T07:32:03;22.83;;;17.42;;
64199;SDS011;50516;52.272;5.136;2022-09-11T07:34:29;19.50;;;17.45;;
64199;SDS011;50516;52.272;5.136;2022-09-11T07:36:54;16.77;;;15.07;;
64199;SDS011;50516;52.272;5.136;2022-09-11T07:39:19;17.08;;;15.10;;
64199;SDS011;50516;52.272;5.136;2022-09-11T07:41:45;18.30;;;14.02;;
64199;SDS011;50516;52.272;5.136;2022-09-11T07:44:10;17.27;;;14.98;;
64199;SDS011;50516;52.272;5.136;2022-09-11T07:46:35;18.65;;;14.73;;
64199;SDS011;50516;52.272;5.136;2022-09-11T07:49:04;13.88;;;11.27;;
64199;SDS011;50516;52.272;5.136;2022-09-11T07:51:31;20.70;;;12.85;;
64199;SDS011;50516;52.272;5.136;2022-09-11T07:53:58;15.20;;;11.45;;
64199;SDS011;50516;52.272;5.136;2022-09-11T07:56:25;16.13;;;12.43;;
64199;SDS011;50516;52.272;5.136;2022-09-11T07:58:52;15.70;;;11.30;;
64199;SDS011;50516;52.272;5.136;2022-09-11T08:01:19;12.88;;;9.55;;
64199;SDS011;50516;52.272;5.136;2022-09-11T08:03:46;15.35;;;10.70;;
64199;SDS011;50516;52.272;5.136;2022-09-11T08:06:14;12.70;;;8.88;;
64199;SDS011;50516;52.272;5.136;2022-09-11T08:08:41;11.75;;;9.20;;
64199;SDS011;50516;52.272;5.136;2022-09-11T08:11:11;11.57;;;8.93;;
64199;SDS011;50516;52.272;5.136;2022-09-11T08:13:38;13.98;;;8.55;;
64199;SDS011;50516;52.272;5.136;2022-09-11T08:16:04;13.68;;;9.20;;
64199;SDS011;50516;52.272;5.136;2022-09-11T08:18:30;12.98;;;8.52;;
64199;SDS011;50516;52.272;5.136;2022-09-11T08:21:06;10.73;;;8.88;;
64199;SDS011;50516;52.272;5.136;2022-09-11T08:23:34;11.23;;;8.40;;
64199;SDS011;50516;52.272;5.136;2022-09-11T08:26:04;12.00;;;8.45;;
64199;SDS011;50516;52.272;5.136;2022-09-11T08:28:31;12.55;;;9.30;;
64199;SDS011;50516;52.272;5.136;2022-09-11T08:30:58;11.80;;;8.00;;
64199;SDS011;50516;52.272;5.136;2022-09-11T08:33:25;9.13;;;7.47;;
64199;SDS011;50516;52.272;5.136;2022-09-11T08:35:50;12.15;;;8.13;;
64199;SDS011;50516;52.272;5.136;2022-09-11T08:38:15;8.85;;;7.07;;
64199;SDS011;50516;52.272;5.136;2022-09-11T08:40:41;8.25;;;6.90;;
64199;SDS011;50516;52.272;5.136;2022-09-11T08:43:08;11.88;;;7.43;;
64199;SDS011;50516;52.272;5.136;2022-09-11T08:45:44;9.85;;;6.65;;
64199;SDS011;50516;52.272;5.136;2022-09-11T08:48:12;7.03;;;5.60;;
64199;SDS011;50516;52.272;5.136;2022-09-11T08:50:39;8.45;;;5.40;;
64199;SDS011;50516;52.272;5.136;2022-09-11T08:53:08;11.73;;;5.00;;
64199;SDS011;50516;52.272;5.136;2022-09-11T08:55:41;7.55;;;4.80;;
64199;SDS011;50516;52.272;5.136;2022-09-11T08:58:29;8.82;;;4.07;;
64199;SDS011;50516;52.272;5.136;2022-09-11T09:01:13;7.05;;;4.25;;
64199;SDS011;50516;52.272;5.136;2022-09-11T09:09:04;9.57;;;4.65;;
64199;SDS011;50516;52.272;5.136;2022-09-11T09:11:42;6.88;;;3.75;;
64199;SDS011;50516;52.272;5.136;2022-09-11T09:24:47;8.70;;;3.80;;
64199;SDS011;50516;52.272;5.136;2022-09-11T09:27:17;8.23;;;3.70;;
64199;SDS011;50516;52.272;5.136;2022-09-11T09:29:45;8.38;;;3.58;;
64199;SDS011;50516;52.272;5.136;2022-09-11T09:32:22;6.78;;;3.47;;
64199;SDS011;50516;52.272;5.136;2022-09-11T09:34:54;10.95;;;3.90;;
64199;SDS011;50516;52.272;5.136;2022-09-11T09:37:26;9.23;;;4.03;;
64199;SDS011;50516;52.272;5.136;2022-09-11T09:39:51;6.53;;;3.38;;
64199;SDS011;50516;52.272;5.136;2022-09-11T09:45:25;6.97;;;3.50;;
64199;SDS011;50516;52.272;5.136;2022-09-11T09:47:59;6.55;;;3.53;;
64199;SDS011;50516;52.272;5.136;2022-09-11T09:50:30;8.30;;;4.18;;
64199;SDS011;50516;52.272;5.136;2022-09-11T09:53:09;6.18;;;3.33;;
64199;SDS011;50516;52.272;5.136;2022-09-11T09:55:37;7.90;;;3.50;;
64199;SDS011;50516;52.272;5.136;2022-09-11T09:58:04;8.32;;;3.85;;
64199;SDS011;50516;52.272;5.136;2022-09-11T10:00:31;7.05;;;3.30;;
64199;SDS011;50516;52.272;5.136;2022-09-11T10:03:10;5.95;;;2.88;;
64199;SDS011;50516;52.272;5.136;2022-09-11T10:05:42;9.68;;;3.58;;
64199;SDS011;50516;52.272;5.136;2022-09-11T10:08:23;5.43;;;2.85;;
64199;SDS011;50516;52.272;5.136;2022-09-11T10:13:29;4.25;;;2.65;;
64199;SDS011;50516;52.272;5.136;2022-09-11T10:16:04;6.32;;;3.50;;
64199;SDS011;50516;52.272;5.136;2022-09-11T10:18:43;9.07;;;3.58;;
64199;SDS011;50516;52.272;5.136;2022-09-11T10:23:35;6.15;;;3.22;;
64199;SDS011;50516;52.272;5.136;2022-09-11T10:26:15;6.47;;;3.40;;
64199;SDS011;50516;52.272;5.136;2022-09-11T10:28:44;4.88;;;3.15;;
64199;SDS011;50516;52.272;5.136;2022-09-11T10:31:14;6.25;;;3.28;;
64199;SDS011;50516;52.272;5.136;2022-09-11T10:33:47;6.18;;;3.30;;
64199;SDS011;50516;52.272;5.136;2022-09-11T10:36:20;5.85;;;3.17;;
64199;SDS011;50516;52.272;5.136;2022-09-11T10:38:48;6.45;;;3.15;;
64199;SDS011;50516;52.272;5.136;2022-09-11T10:41:15;6.82;;;3.45;;
64199;SDS011;50516;52.272;5.136;2022-09-11T10:51:24;5.00;;;2.78;;
64199;SDS011;50516;52.272;5.136;2022-09-11T10:56:23;6.07;;;3.05;;
64199;SDS011;50516;52.272;5.136;2022-09-11T10:58:51;5.68;;;2.80;;
64199;SDS011;50516;52.272;5.136;2022-09-11T11:01:24;5.40;;;2.83;;
64199;SDS011;50516;52.272;5.136;2022-09-11T11:03:50;5.35;;;2.80;;
64199;SDS011;50516;52.272;5.136;2022-09-11T11:11:51;7.18;;;2.90;;
64199;SDS011;50516;52.272;5.136;2022-09-11T11:17:14;5.55;;;2.83;;
64199;SDS011;50516;52.272;5.136;2022-09-11T11:24:49;6.82;;;2.70;;
64199;SDS011;50516;52.272;5.136;2022-09-11T11:27:41;5.57;;;2.90;;
64199;SDS011;50516;52.272;5.136;2022-09-11T11:33:04;5.15;;;2.38;;
64199;SDS011;50516;52.272;5.136;2022-09-11T11:35:37;5.28;;;2.50;;
64199;SDS011;50516;52.272;5.136;2022-09-11T11:41:13;4.10;;;2.53;;
64199;SDS011;50516;52.272;5.136;2022-09-11T11:43:44;4.28;;;2.47;;
64199;SDS011;50516;52.272;5.136;2022-09-11T11:46:14;6.57;;;2.47;;
64199;SDS011;50516;52.272;5.136;2022-09-11T11:48:55;3.63;;;2.05;;
64199;SDS011;50516;52.272;5.136;2022-09-11T11:51:25;3.75;;;2.38;;
64199;SDS011;50516;52.272;5.136;2022-09-11T11:54:25;7.30;;;2.67;;
64199;SDS011;50516;52.272;5.136;2022-09-11T11:57:03;5.72;;;2.30;;
64199;SDS011;50516;52.272;5.136;2022-09-11T11:59:38;5.50;;;2.35;;
64199;SDS011;50516;52.272;5.136;2022-09-11T12:07:23;5.97;;;2.15;;
64199;SDS011;50516;52.272;5.136;2022-09-11T12:09:54;5.00;;;2.35;;
64199;SDS011;50516;52.272;5.136;2022-09-11T12:12:22;4.97;;;2.30;;
64199;SDS011;50516;52.272;5.136;2022-09-11T12:14:55;5.57;;;2.55;;
64199;SDS011;50516;52.272;5.136;2022-09-11T12:22:35;2.72;;;1.98;;
64199;SDS011;50516;52.272;5.136;2022-09-11T12:27:53;6.00;;;2.42;;
64199;SDS011;50516;52.272;5.136;2022-09-11T12:30:58;6.18;;;2.63;;
64199;SDS011;50516;52.272;5.136;2022-09-11T12:36:16;2.78;;;2.13;;
64199;SDS011;50516;52.272;5.136;2022-09-11T12:38:49;5.57;;;2.55;;
64199;SDS011;50516;52.272;5.136;2022-09-11T12:41:26;6.70;;;2.70;;
64199;SDS011;50516;52.272;5.136;2022-09-11T12:43:54;4.53;;;2.55;;
64199;SDS011;50516;52.272;5.136;2022-09-11T12:48:46;6.40;;;2.13;;
64199;SDS011;50516;52.272;5.136;2022-09-11T12:53:47;3.15;;;2.10;;
64199;SDS011;50516;52.272;5.136;2022-09-11T12:56:21;5.75;;;2.40;;
64199;SDS011;50516;52.272;5.136;2022-09-11T12:58:56;4.63;;;2.30;;
64199;SDS011;50516;52.272;5.136;2022-09-11T13:01:30;3.20;;;2.13;;
64199;SDS011;50516;52.272;5.136;2022-09-11T13:06:43;8.65;;;2.33;;
64199;SDS011;50516;52.272;5.136;2022-09-11T13:09:31;6.05;;;2.40;;
64199;SDS011;50516;52.272;5.136;2022-09-11T13:14:46;4.90;;;2.65;;
64199;SDS011;50516;52.272;5.136;2022-09-11T13:17:31;3.85;;;2.17;;
64199;SDS011;50516;52.272;5.136;2022-09-11T13:22:30;3.35;;;2.13;;
64199;SDS011;50516;52.272;5.136;2022-09-11T13:27:44;3.42;;;2.40;;
64199;SDS011;50516;52.272;5.136;2022-09-11T13:30:14;3.83;;;2.10;;
64199;SDS011;50516;52.272;5.136;2022-09-11T13:32:41;3.25;;;2.35;;
64199;SDS011;50516;52.272;5.136;2022-09-11T13:35:10;3.63;;;2.13;;
64199;SDS011;50516;52.272;5.136;2022-09-11T13:43:16;6.18;;;2.38;;
64199;SDS011;50516;52.272;5.136;2022-09-11T13:45:46;4.07;;;2.10;;
64199;SDS011;50516;52.272;5.136;2022-09-11T13:48:18;3.78;;;2.15;;
64199;SDS011;50516;52.272;5.136;2022-09-11T13:50:45;4.95;;;2.00;;
64199;SDS011;50516;52.272;5.136;2022-09-11T13:53:12;3.70;;;1.92;;
64199;SDS011;50516;52.272;5.136;2022-09-11T13:55:37;5.47;;;2.17;;
64199;SDS011;50516;52.272;5.136;2022-09-11T13:58:18;3.40;;;2.05;;
64199;SDS011;50516;52.272;5.136;2022-09-11T14:00:47;4.20;;;2.08;;
64199;SDS011;50516;52.272;5.136;2022-09-11T14:03:19;4.65;;;2.55;;
64199;SDS011;50516;52.272;5.136;2022-09-11T14:05:47;2.72;;;1.77;;
64199;SDS011;50516;52.272;5.136;2022-09-11T14:08:29;3.85;;;2.00;;
64199;SDS011;50516;52.272;5.136;2022-09-11T14:11:09;3.47;;;1.80;;
64199;SDS011;50516;52.272;5.136;2022-09-11T14:18:56;3.63;;;2.00;;
64199;SDS011;50516;52.272;5.136;2022-09-11T14:21:37;3.33;;;1.90;;
64199;SDS011;50516;52.272;5.136;2022-09-11T14:24:23;3.67;;;2.33;;
64199;SDS011;50516;52.272;5.136;2022-09-11T14:26:50;1.95;;;1.70;;
64199;SDS011;50516;52.272;5.136;2022-09-11T14:34:55;4.40;;;1.88;;
64199;SDS011;50516;52.272;5.136;2022-09-11T14:37:21;3.65;;;1.90;;
64199;SDS011;50516;52.272;5.136;2022-09-11T14:39:53;5.43;;;2.65;;
64199;SDS011;50516;52.272;5.136;2022-09-11T14:42:22;3.58;;;2.05;;
64199;SDS011;50516;52.272;5.136;2022-09-11T14:44:52;2.60;;;1.83;;
64199;SDS011;50516;52.272;5.136;2022-09-11T14:47:21;2.92;;;2.13;;
64199;SDS011;50516;52.272;5.136;2022-09-11T14:49:52;5.13;;;2.10;;
64199;SDS011;50516;52.272;5.136;2022-09-11T14:52:19;5.50;;;2.42;;
64199;SDS011;50516;52.272;5.136;2022-09-11T14:54:46;4.40;;;1.92;;
64199;SDS011;50516;52.272;5.136;2022-09-11T14:57:16;4.72;;;2.30;;
64199;SDS011;50516;52.272;5.136;2022-09-11T14:59:43;3.20;;;2.17;;
64199;SDS011;50516;52.272;5.136;2022-09-11T15:02:16;4.82;;;2.20;;
64199;SDS011;50516;52.272;5.136;2022-09-11T15:04:43;4.53;;;2.15;;
64199;SDS011;50516;52.272;5.136;2022-09-11T15:07:11;3.28;;;2.00;;
64199;SDS011;50516;52.272;5.136;2022-09-11T15:09:37;3.15;;;2.20;;
64199;SDS011;50516;52.272;5.136;2022-09-11T15:12:04;2.35;;;1.80;;
64199;SDS011;50516;52.272;5.136;2022-09-11T15:14:30;6.43;;;2.72;;
64199;SDS011;50516;52.272;5.136;2022-09-11T15:16:57;4.40;;;2.42;;
64199;SDS011;50516;52.272;5.136;2022-09-11T15:19:27;3.63;;;2.00;;
64199;SDS011;50516;52.272;5.136;2022-09-11T15:21:53;3.65;;;1.98;;
64199;SDS011;50516;52.272;5.136;2022-09-11T15:24:21;3.08;;;2.20;;
64199;SDS011;50516;52.272;5.136;2022-09-11T15:26:48;4.28;;;2.17;;
64199;SDS011;50516;52.272;5.136;2022-09-11T15:29:13;3.08;;;1.92;;
64199;SDS011;50516;52.272;5.136;2022-09-11T15:31:39;4.78;;;2.30;;
64199;SDS011;50516;52.272;5.136;2022-09-11T15:34:04;2.65;;;1.70;;
64199;SDS011;50516;52.272;5.136;2022-09-11T15:36:31;2.92;;;1.80;;
64199;SDS011;50516;52.272;5.136;2022-09-11T15:38:58;4.03;;;2.17;;
64199;SDS011;50516;52.272;5.136;2022-09-11T15:41:23;3.53;;;1.80;;
64199;SDS011;50516;52.272;5.136;2022-09-11T15:43:51;3.17;;;1.80;;
64199;SDS011;50516;52.272;5.136;2022-09-11T15:46:18;3.10;;;1.90;;
64199;SDS011;50516;52.272;5.136;2022-09-11T15:48:45;3.70;;;1.88;;
64199;SDS011;50516;52.272;5.136;2022-09-11T15:51:12;5.43;;;2.05;;
64199;SDS011;50516;52.272;5.136;2022-09-11T15:53:40;2.63;;;1.50;;
64199;SDS011;50516;52.272;5.136;2022-09-11T15:56:06;2.88;;;2.00;;
64199;SDS011;50516;52.272;5.136;2022-09-11T15:58:37;2.47;;;1.80;;
64199;SDS011;50516;52.272;5.136;2022-09-11T16:01:06;3.97;;;1.70;;
64199;SDS011;50516;52.272;5.136;2022-09-11T16:08:32;3.27;;;1.80;;
64199;SDS011;50516;52.272;5.136;2022-09-11T16:10:59;3.42;;;2.00;;
64199;SDS011;50516;52.272;5.136;2022-09-11T16:13:27;3.75;;;1.67;;
64199;SDS011;50516;52.272;5.136;2022-09-11T16:15:59;4.10;;;2.17;;
64199;SDS011;50516;52.272;5.136;2022-09-11T16:18:30;5.45;;;2.05;;
64199;SDS011;50516;52.272;5.136;2022-09-11T16:20:58;3.70;;;1.75;;
64199;SDS011;50516;52.272;5.136;2022-09-11T16:23:27;6.85;;;2.35;;
64199;SDS011;50516;52.272;5.136;2022-09-11T16:25:52;5.18;;;2.13;;
64199;SDS011;50516;52.272;5.136;2022-09-11T16:28:18;2.83;;;1.80;;
64199;SDS011;50516;52.272;5.136;2022-09-11T16:30:45;2.35;;;1.77;;
64199;SDS011;50516;52.272;5.136;2022-09-11T16:33:11;6.35;;;2.38;;
64199;SDS011;50516;52.272;5.136;2022-09-11T16:35:37;3.08;;;2.13;;
64199;SDS011;50516;52.272;5.136;2022-09-11T16:38:04;3.90;;;2.08;;
64199;SDS011;50516;52.272;5.136;2022-09-11T16:40:33;3.30;;;2.03;;
64199;SDS011;50516;52.272;5.136;2022-09-11T16:42:59;4.55;;;2.50;;
64199;SDS011;50516;52.272;5.136;2022-09-11T16:45:25;3.15;;;1.95;;
64199;SDS011;50516;52.272;5.136;2022-09-11T16:47:52;4.32;;;2.25;;
64199;SDS011;50516;52.272;5.136;2022-09-11T16:50:18;3.55;;;2.28;;
64199;SDS011;50516;52.272;5.136;2022-09-11T16:52:43;4.65;;;2.50;;
64199;SDS011;50516;52.272;5.136;2022-09-11T16:55:09;4.72;;;2.08;;
64199;SDS011;50516;52.272;5.136;2022-09-11T16:57:34;3.95;;;1.98;;
64199;SDS011;50516;52.272;5.136;2022-09-11T17:00:00;6.97;;;2.85;;
64199;SDS011;50516;52.272;5.136;2022-09-11T17:02:26;3.47;;;1.90;;
64199;SDS011;50516;52.272;5.136;2022-09-11T17:04:51;5.85;;;2.38;;